Time;durP1;ratioP1;P1;durP2;ratioP2;P2;SDS_P1;SDS_P2;PMS_P1;PMS_P2;Temp;Humidity;BMP_temperature;BMP_pressure;BME280_temperature;BME280_humidity;BME280_pressure;Samples;Min_cycle;Max_cycle;Signal;HPM_P1;HPM_P2
2023/05/03 00:01:29;;;;;;;0.60;0.60;;;8.10;99.90;;;;;;4984460;28;20050;-82
2023/05/03 00:03:55;;;;;;;1.30;0.70;;;8.10;99.90;;;;;;4984744;28;20046;-85
2023/05/03 00:06:20;;;;;;;2.08;0.85;;;8.10;99.90;;;;;;4985213;28;20046;-86
2023/05/03 00:08:46;;;;;;;0.63;0.63;;;8.10;99.90;;;;;;4984657;28;20081;-85
2023/05/03 00:11:12;;;;;;;0.90;0.63;;;8.20;99.90;;;;;;4984745;28;20046;-86
2023/05/03 00:13:37;;;;;;;0.70;0.70;;;8.20;99.90;;;;;;4985510;28;20034;-82
2023/05/03 00:16:03;;;;;;;0.57;0.57;;;8.20;99.90;;;;;;4984520;28;20608;-87
2023/05/03 00:18:29;;;;;;;0.50;0.50;;;8.20;99.90;;;;;;4984262;28;20046;-86
2023/05/03 00:20:55;;;;;;;0.70;0.70;;;8.20;99.90;;;;;;4984746;28;20042;-84
2023/05/03 00:23:22;;;;;;;0.90;0.90;;;8.20;99.90;;;;;;4985680;28;20121;-86
2023/05/03 00:25:55;;;;;;;0.73;0.73;;;8.20;99.90;;;;;;4985336;28;20034;-84
2023/05/03 00:28:21;;;;;;;0.50;0.50;;;8.30;99.90;;;;;;4986051;28;20500;-85
2023/05/03 00:30:47;;;;;;;0.75;0.60;;;8.30;99.90;;;;;;4984244;28;20042;-86
2023/05/03 00:33:13;;;;;;;1.38;0.57;;;8.20;99.90;;;;;;4984215;28;20425;-84
2023/05/03 00:35:38;;;;;;;1.70;1.13;;;8.30;99.90;;;;;;4985679;28;20105;-85
2023/05/03 00:38:04;;;;;;;0.50;0.50;;;8.20;99.90;;;;;;4985276;28;20042;-86
2023/05/03 00:40:30;;;;;;;4.50;1.70;;;8.20;99.90;;;;;;4985404;28;20596;-85
2023/05/03 00:42:55;;;;;;;0.98;0.98;;;8.20;99.90;;;;;;4986164;28;20489;-86
2023/05/03 00:45:21;;;;;;;0.60;0.60;;;8.20;99.90;;;;;;4985228;28;20490;-86
2023/05/03 00:47:47;;;;;;;0.90;0.90;;;8.20;99.90;;;;;;4984310;28;20038;-86
2023/05/03 00:50:13;;;;;;;4.80;0.90;;;8.10;99.90;;;;;;4982855;28;20089;-86
2023/05/03 00:52:39;;;;;;;1.95;0.75;;;8.20;99.90;;;;;;4985712;28;20078;-85
2023/05/03 00:55:07;;;;;;;0.82;0.73;;;8.10;99.90;;;;;;4983861;28;20042;-86
2023/05/03 00:57:32;;;;;;;3.83;1.25;;;8.20;99.90;;;;;;4967531;28;20405;-85
2023/05/03 00:59:58;;;;;;;1.13;0.65;;;8.20;99.90;;;;;;4985529;28;20038;-84
2023/05/03 01:02:25;;;;;;;1.23;0.90;;;8.20;99.90;;;;;;5058423;23;20153;-86
2023/05/03 01:04:52;;;;;;;1.20;0.90;;;8.20;99.90;;;;;;4986535;28;20610;-85
2023/05/03 01:07:27;;;;;;;2.78;1.10;;;8.20;99.90;;;;;;5003963;28;20108;-82
2023/05/03 01:10:17;;;;;;;2.40;2.20;;;8.20;99.90;;;;;;4987073;28;20103;-86
2023/05/03 01:12:55;;;;;;;1.73;0.95;;;8.20;99.90;;;;;;5004484;28;20038;-86
2023/05/03 01:15:30;;;;;;;2.88;0.95;;;8.20;99.90;;;;;;5004996;28;20080;-85
2023/05/03 01:18:03;;;;;;;1.20;1.10;;;8.20;99.90;;;;;;5004020;28;20473;-85
2023/05/03 01:20:29;;;;;;;;;;;8.20;99.90;;;;;;5005576;28;20371;-85
2023/05/03 01:22:58;;;;;;;1.52;0.88;;;8.20;99.90;;;;;;4986482;28;19927;-84
2023/05/03 01:25:25;;;;;;;3.95;1.27;;;8.20;99.90;;;;;;5004277;28;20077;-84
2023/05/03 01:27:51;;;;;;;1.38;0.90;;;8.20;99.90;;;;;;5004807;28;20054;-85
2023/05/03 01:30:17;;;;;;;0.80;0.73;;;8.20;99.90;;;;;;5004065;28;20096;-86
2023/05/03 01:32:55;;;;;;;0.85;0.80;;;8.10;99.90;;;;;;5002929;28;20451;-84
2023/05/03 01:35:43;;;;;;;1.48;0.85;;;8.10;99.90;;;;;;5004468;28;20500;-84
2023/05/03 01:38:10;;;;;;;0.60;0.60;;;8.10;99.90;;;;;;5005082;28;20045;-84
2023/05/03 01:40:44;;;;;;;0.80;0.80;;;8.10;99.90;;;;;;5003776;28;20037;-82
2023/05/03 01:43:15;;;;;;;2.28;1.42;;;8.10;99.90;;;;;;5004293;28;20455;-86
2023/05/03 01:45:41;;;;;;;2.20;0.90;;;8.00;99.90;;;;;;5003826;28;20041;-86
2023/05/03 01:48:17;;;;;;;1.48;1.08;;;8.00;99.90;;;;;;5001379;28;20144;-86
2023/05/03 01:50:43;;;;;;;0.50;0.50;;;8.00;99.90;;;;;;4986465;28;20038;-84
2023/05/03 01:53:09;;;;;;;1.58;1.10;;;8.00;99.90;;;;;;5004401;28;20046;-84
2023/05/03 01:55:35;;;;;;;1.10;1.00;;;8.00;99.90;;;;;;5003568;28;20471;-86
2023/05/03 01:58:00;;;;;;;3.28;1.10;;;7.90;99.90;;;;;;5002731;28;20121;-84
2023/05/03 02:00:26;;;;;;;2.15;1.05;;;7.90;99.90;;;;;;5002723;28;20053;-86
2023/05/03 02:02:52;;;;;;;4.68;1.50;;;7.90;99.90;;;;;;5001241;28;20054;-85
2023/05/03 02:05:17;;;;;;;2.58;1.05;;;7.90;99.90;;;;;;5002954;28;20474;-82
2023/05/03 02:07:43;;;;;;;0.50;0.50;;;7.90;99.90;;;;;;5003158;28;20037;-85
2023/05/03 02:10:13;;;;;;;0.95;0.88;;;8.00;99.90;;;;;;5019067;28;20495;-85
2023/05/03 02:12:40;;;;;;;2.25;1.08;;;8.00;99.90;;;;;;5003720;28;20073;-86
2023/05/03 02:15:06;;;;;;;1.38;1.13;;;7.90;99.90;;;;;;5002525;28;20069;-83
2023/05/03 02:17:33;;;;;;;0.47;0.43;;;7.90;99.90;;;;;;5005416;28;20061;-84
2023/05/03 02:19:58;;;;;;;1.15;1.05;;;7.90;99.90;;;;;;5004982;28;20088;-86
2023/05/03 02:22:24;;;;;;;4.82;1.00;;;7.90;99.90;;;;;;5006983;28;20034;-85
2023/05/03 02:24:49;;;;;;;0.68;0.68;;;7.90;99.90;;;;;;5007489;28;20053;-85
2023/05/03 02:27:16;;;;;;;2.97;1.92;;;7.90;99.90;;;;;;5006783;28;20042;-84
2023/05/03 02:29:41;;;;;;;1.55;0.98;;;8.00;99.90;;;;;;5007477;28;20038;-81
2023/05/03 02:32:07;;;;;;;2.50;1.35;;;7.90;99.90;;;;;;5006100;28;20096;-86
2023/05/03 02:34:33;;;;;;;3.45;1.27;;;8.00;99.90;;;;;;5005168;28;20097;-86
2023/05/03 02:36:59;;;;;;;1.83;0.63;;;8.00;99.90;;;;;;5005454;28;20133;-85
2023/05/03 02:39:24;;;;;;;0.77;0.77;;;8.00;99.90;;;;;;5007044;28;20512;-85
2023/05/03 02:41:50;;;;;;;1.60;1.50;;;8.00;99.90;;;;;;5007352;28;20056;-86
2023/05/03 02:44:16;;;;;;;0.47;0.47;;;8.00;99.90;;;;;;5006436;28;20519;-85
2023/05/03 02:46:41;;;;;;;0.85;0.45;;;8.00;99.90;;;;;;5007269;28;20392;-85
2023/05/03 02:49:08;;;;;;;1.25;1.02;;;8.10;99.90;;;;;;5004525;28;20125;-86
2023/05/03 02:51:34;;;;;;;1.48;0.73;;;8.10;99.90;;;;;;5007513;28;20235;-85
2023/05/03 02:54:00;;;;;;;1.10;0.70;;;8.00;99.90;;;;;;5007172;28;20081;-82
2023/05/03 02:56:26;;;;;;;1.50;0.50;;;8.00;99.90;;;;;;5005474;28;20081;-85
2023/05/03 02:58:52;;;;;;;1.08;1.05;;;8.00;99.90;;;;;;5005778;28;20046;-85
2023/05/03 03:01:18;;;;;;;0.30;0.30;;;8.00;99.90;;;;;;4988596;28;20066;-86
2023/05/03 03:03:44;;;;;;;0.82;0.82;;;8.00;99.90;;;;;;5005981;28;20046;-85
2023/05/03 03:06:09;;;;;;;0.80;0.75;;;8.00;99.90;;;;;;5006566;28;20042;-85
2023/05/03 03:08:35;;;;;;;0.65;0.52;;;8.00;99.90;;;;;;5006718;28;20045;-84
2023/05/03 03:11:02;;;;;;;0.73;0.73;;;8.00;99.90;;;;;;5005706;28;20041;-82
2023/05/03 03:13:28;;;;;;;2.17;0.60;;;8.10;99.90;;;;;;5005978;28;20450;-85
2023/05/03 03:15:54;;;;;;;3.30;0.90;;;8.10;99.90;;;;;;5004893;28;20042;-84
2023/05/03 03:18:19;;;;;;;0.63;0.60;;;8.10;99.90;;;;;;5005582;28;20053;-85
2023/05/03 03:20:45;;;;;;;2.78;0.57;;;8.10;99.90;;;;;;5006422;28;20285;-84
2023/05/03 03:23:11;;;;;;;0.80;0.80;;;8.10;99.90;;;;;;5006783;28;20042;-85
2023/05/03 03:25:37;;;;;;;1.02;0.60;;;8.10;99.90;;;;;;5006430;28;20038;-85
2023/05/03 03:28:02;;;;;;;1.05;0.60;;;8.10;99.90;;;;;;5006451;28;20030;-85
2023/05/03 03:30:29;;;;;;;0.60;0.60;;;8.10;99.90;;;;;;5005574;28;20084;-86
2023/05/03 03:32:54;;;;;;;1.05;0.73;;;8.10;99.90;;;;;;5005034;28;20251;-84
2023/05/03 03:35:20;;;;;;;1.15;0.68;;;8.10;99.90;;;;;;5005920;28;20037;-87
2023/05/03 03:37:46;;;;;;;0.50;0.50;;;8.10;99.90;;;;;;5005766;28;20331;-85
2023/05/03 03:40:12;;;;;;;1.35;0.60;;;8.10;99.90;;;;;;5005165;28;20058;-85
2023/05/03 03:42:39;;;;;;;0.73;0.70;;;8.10;99.90;;;;;;5005857;28;20396;-85
2023/05/03 03:45:05;;;;;;;1.00;1.00;;;8.10;99.90;;;;;;5006286;28;20054;-85
2023/05/03 03:47:31;;;;;;;1.73;0.82;;;8.10;99.90;;;;;;5005187;28;20041;-85
2023/05/03 03:49:58;;;;;;;0.52;0.52;;;8.10;99.90;;;;;;5004213;28;20050;-84
2023/05/03 03:52:24;;;;;;;0.93;0.93;;;8.10;99.90;;;;;;5006119;28;20033;-84
2023/05/03 03:54:51;;;;;;;0.90;0.90;;;8.10;99.90;;;;;;5005647;28;20064;-86
2023/05/03 03:57:16;;;;;;;1.27;1.17;;;8.10;99.90;;;;;;5004647;28;20065;-85
2023/05/03 03:59:42;;;;;;;2.85;0.77;;;8.10;99.90;;;;;;5004803;28;20038;-84
2023/05/03 04:02:07;;;;;;;1.40;0.70;;;8.10;99.90;;;;;;5005938;28;20065;-85
2023/05/03 04:04:33;;;;;;;0.88;0.68;;;8.10;99.90;;;;;;5004790;28;20045;-86
2023/05/03 04:06:58;;;;;;;0.98;0.55;;;8.10;99.90;;;;;;5003769;28;20034;-83
2023/05/03 04:09:24;;;;;;;1.38;1.13;;;8.10;99.90;;;;;;5006126;28;20053;-84
2023/05/03 04:11:50;;;;;;;0.85;0.80;;;8.10;99.90;;;;;;4987756;28;20060;-85
2023/05/03 04:14:15;;;;;;;3.60;0.98;;;8.10;99.90;;;;;;5005833;28;20042;-82
2023/05/03 04:16:41;;;;;;;1.38;0.70;;;8.10;99.90;;;;;;5006001;28;20092;-86
2023/05/03 04:19:06;;;;;;;1.98;1.52;;;8.00;99.90;;;;;;5004625;28;20050;-84
2023/05/03 04:21:32;;;;;;;0.73;0.68;;;8.00;99.90;;;;;;5005438;28;20451;-86
2023/05/03 04:23:59;;;;;;;1.38;0.75;;;8.10;99.90;;;;;;5004472;28;20041;-86
2023/05/03 04:26:24;;;;;;;0.57;0.57;;;8.00;99.90;;;;;;5005207;28;20111;-86
2023/05/03 04:28:50;;;;;;;2.17;1.63;;;8.00;99.90;;;;;;5005375;28;20053;-85
2023/05/03 04:31:18;;;;;;;4.03;1.27;;;8.00;99.90;;;;;;5004128;28;20223;-84
2023/05/03 04:33:44;;;;;;;2.85;0.65;;;8.00;99.90;;;;;;5002700;28;20121;-86
2023/05/03 04:36:14;;;;;;;0.73;0.52;;;8.00;99.90;;;;;;5005259;28;20081;-86
2023/05/03 04:38:41;;;;;;;1.77;0.90;;;8.00;99.90;;;;;;5006101;28;20057;-84
2023/05/03 04:41:10;;;;;;;0.77;0.77;;;8.00;99.90;;;;;;5003986;28;20038;-86
2023/05/03 04:43:36;;;;;;;2.55;0.80;;;8.00;99.90;;;;;;5005070;28;20050;-86
2023/05/03 04:46:05;;;;;;;1.25;0.98;;;8.10;99.90;;;;;;5005112;28;20447;-85
2023/05/03 04:48:30;;;;;;;1.02;1.02;;;8.10;99.90;;;;;;5004210;28;20034;-84
2023/05/03 04:50:57;;;;;;;2.50;1.13;;;8.10;99.90;;;;;;5004683;28;20134;-86
2023/05/03 04:53:22;;;;;;;0.45;0.45;;;8.10;99.90;;;;;;5004443;28;20092;-82
2023/05/03 04:55:49;;;;;;;0.73;0.65;;;8.10;99.90;;;;;;5005143;28;20045;-86
2023/05/03 04:58:15;;;;;;;1.23;0.90;;;8.10;99.90;;;;;;5002884;28;20049;-82
2023/05/03 05:00:41;;;;;;;0.50;0.50;;;8.10;99.90;;;;;;5002427;28;20102;-88
2023/05/03 05:03:07;;;;;;;2.15;1.23;;;8.10;99.90;;;;;;5003294;28;20057;-86
2023/05/03 05:05:33;;;;;;;0.60;0.60;;;8.10;99.90;;;;;;5004343;28;20520;-86
2023/05/03 05:07:59;;;;;;;1.88;1.15;;;8.10;99.90;;;;;;5002817;28;20042;-86
2023/05/03 05:10:24;;;;;;;0.60;0.60;;;8.20;99.90;;;;;;5004778;28;20516;-86
2023/05/03 05:12:53;;;;;;;3.67;1.02;;;8.20;99.90;;;;;;5004670;28;20045;-86
2023/05/03 05:15:18;;;;;;;0.85;0.75;;;8.20;99.90;;;;;;5003793;28;20045;-86
2023/05/03 05:17:44;;;;;;;1.00;1.00;;;8.20;99.90;;;;;;5003602;28;20064;-85
2023/05/03 05:20:12;;;;;;;1.45;1.35;;;8.20;99.90;;;;;;5004489;28;20042;-87
2023/05/03 05:22:40;;;;;;;1.08;1.05;;;8.30;99.90;;;;;;5003505;28;20038;-85
2023/05/03 05:25:07;;;;;;;1.15;0.85;;;8.30;99.90;;;;;;5004233;28;20254;-85
2023/05/03 05:27:36;;;;;;;0.82;0.82;;;8.30;99.90;;;;;;5004057;28;20088;-87
2023/05/03 05:30:01;;;;;;;0.80;0.80;;;8.30;99.90;;;;;;5003304;28;20041;-85
2023/05/03 05:32:27;;;;;;;0.93;0.70;;;8.30;99.90;;;;;;5001725;28;20073;-86
2023/05/03 05:34:54;;;;;;;7.05;1.10;;;8.30;99.90;;;;;;5003638;28;20034;-87
2023/05/03 05:37:23;;;;;;;0.70;0.50;;;8.30;99.90;;;;;;5003219;28;20226;-84
2023/05/03 05:39:48;;;;;;;2.30;0.80;;;8.40;99.90;;;;;;5003623;28;20034;-83
2023/05/03 05:42:14;;;;;;;1.20;0.90;;;8.40;99.90;;;;;;5002672;28;20046;-84
2023/05/03 05:44:40;;;;;;;1.23;1.13;;;8.40;99.90;;;;;;5002500;28;20357;-85
2023/05/03 05:47:06;;;;;;;0.85;0.85;;;8.40;99.90;;;;;;5001599;28;20470;-86
2023/05/03 05:49:32;;;;;;;0.50;0.45;;;8.50;99.90;;;;;;5003653;28;20384;-84
2023/05/03 05:51:57;;;;;;;0.50;0.50;;;8.50;99.90;;;;;;5003190;28;20180;-86
2023/05/03 05:54:23;;;;;;;3.33;0.80;;;8.50;99.90;;;;;;5003062;28;20488;-81
2023/05/03 05:56:49;;;;;;;3.00;0.90;;;8.50;99.90;;;;;;5003409;28;20056;-86
2023/05/03 05:59:15;;;;;;;1.73;0.70;;;8.50;99.90;;;;;;4986071;28;20052;-86
2023/05/03 06:01:44;;;;;;;0.55;0.43;;;8.60;99.90;;;;;;5002969;28;20292;-85
2023/05/03 06:04:10;;;;;;;0.93;0.75;;;8.60;99.90;;;;;;5002637;28;20033;-86
2023/05/03 06:06:36;;;;;;;1.05;0.95;;;8.60;99.90;;;;;;5001888;28;20052;-86
2023/05/03 06:09:02;;;;;;;0.55;0.55;;;8.60;99.90;;;;;;5003206;28;20046;-83
2023/05/03 06:11:28;;;;;;;1.20;0.50;;;8.70;99.90;;;;;;5003517;28;20046;-83
2023/05/03 06:13:55;;;;;;;1.40;1.30;;;8.70;99.90;;;;;;5003614;28;20050;-85
2023/05/03 06:16:21;;;;;;;0.52;0.52;;;8.70;99.90;;;;;;4985745;28;20042;-85
2023/05/03 06:18:47;;;;;;;1.00;0.75;;;8.70;99.90;;;;;;5002558;28;20519;-87
2023/05/03 06:21:13;;;;;;;1.00;0.70;;;8.80;99.90;;;;;;5003909;28;20710;-83
2023/05/03 06:23:39;;;;;;;1.27;0.98;;;8.80;99.90;;;;;;5003672;28;20042;-86
2023/05/03 06:26:05;;;;;;;0.63;0.32;;;8.80;99.90;;;;;;5003415;28;20049;-82
2023/05/03 06:28:30;;;;;;;2.17;0.47;;;8.90;99.90;;;;;;5003920;28;20744;-84
2023/05/03 06:30:56;;;;;;;0.30;0.30;;;8.90;99.90;;;;;;5003085;28;20050;-86
2023/05/03 06:33:22;;;;;;;1.60;0.63;;;9.00;99.90;;;;;;5002139;28;20500;-85
2023/05/03 06:35:48;;;;;;;1.75;0.60;;;9.00;99.90;;;;;;4985937;28;20464;-87
2023/05/03 06:38:13;;;;;;;0.35;0.35;;;9.00;99.90;;;;;;5003458;28;20038;-82
2023/05/03 06:40:42;;;;;;;0.88;0.70;;;9.00;99.90;;;;;;5002236;28;20120;-86
2023/05/03 06:43:08;;;;;;;0.40;0.40;;;9.00;99.90;;;;;;4985416;28;20570;-86
2023/05/03 06:45:34;;;;;;;0.50;0.40;;;9.10;99.90;;;;;;5003542;28;20038;-83
2023/05/03 06:48:00;;;;;;;0.65;0.65;;;9.10;99.90;;;;;;5001884;28;20120;-86
2023/05/03 06:50:25;;;;;;;0.50;0.30;;;9.10;99.90;;;;;;5003254;28;20141;-82
2023/05/03 06:52:51;;;;;;;2.22;0.50;;;9.20;99.90;;;;;;5003566;28;20121;-87
2023/05/03 06:55:17;;;;;;;1.52;1.35;;;9.20;99.90;;;;;;5002897;28;20492;-85
2023/05/03 06:57:42;;;;;;;0.95;0.75;;;9.20;99.90;;;;;;5001744;28;20488;-85
2023/05/03 07:00:09;;;;;;;0.50;0.50;;;9.20;99.90;;;;;;5003323;28;20461;-87
2023/05/03 07:02:34;;;;;;;0.47;0.47;;;9.20;99.90;;;;;;5001590;28;20086;-84
2023/05/03 07:05:00;;;;;;;0.50;0.45;;;9.20;99.90;;;;;;5003885;28;20077;-86
2023/05/03 07:07:26;;;;;;;0.32;0.32;;;9.30;99.90;;;;;;5006375;28;20045;-85
2023/05/03 07:09:51;;;;;;;1.23;0.80;;;9.30;99.90;;;;;;5007581;28;20037;-84
2023/05/03 07:12:17;;;;;;;0.52;0.50;;;9.30;99.90;;;;;;5006486;28;20050;-85
2023/05/03 07:14:42;;;;;;;0.82;0.80;;;9.40;99.90;;;;;;5006585;28;20252;-85
2023/05/03 07:17:08;;;;;;;0.50;0.50;;;9.40;99.90;;;;;;5006017;28;20038;-86
2023/05/03 07:19:35;;;;;;;1.10;0.65;;;9.50;99.90;;;;;;5004971;28;20111;-84
2023/05/03 07:22:02;;;;;;;0.50;0.50;;;9.50;99.90;;;;;;5005197;28;20120;-85
2023/05/03 07:24:28;;;;;;;1.02;0.70;;;9.50;99.90;;;;;;4988171;28;20057;-85
2023/05/03 07:26:53;;;;;;;1.15;0.65;;;9.60;99.90;;;;;;5006329;28;20045;-85
2023/05/03 07:29:19;;;;;;;0.63;0.50;;;9.60;99.90;;;;;;5021606;28;20132;-85
2023/05/03 07:31:45;;;;;;;2.10;0.88;;;9.60;99.90;;;;;;5004494;28;20046;-84
2023/05/03 07:34:11;;;;;;;0.80;0.47;;;9.60;99.90;;;;;;4988232;28;20084;-84
2023/05/03 07:36:38;;;;;;;0.82;0.65;;;9.60;99.90;;;;;;5004295;28;20045;-83
2023/05/03 07:39:04;;;;;;;1.88;0.50;;;9.70;99.90;;;;;;5005779;28;20125;-83
2023/05/03 07:41:30;;;;;;;0.47;0.45;;;9.70;99.90;;;;;;5005878;28;20446;-86
2023/05/03 07:43:56;;;;;;;0.50;0.50;;;9.70;99.90;;;;;;5005539;28;20046;-83
2023/05/03 07:46:22;;;;;;;0.88;0.60;;;9.70;99.90;;;;;;5006418;28;20091;-87
2023/05/03 07:48:48;;;;;;;0.45;0.45;;;9.80;99.90;;;;;;5004860;28;20485;-85
2023/05/03 07:51:13;;;;;;;1.15;0.68;;;9.70;99.90;;;;;;5005807;28;20042;-85
2023/05/03 07:53:39;;;;;;;1.02;0.60;;;9.80;99.90;;;;;;5003777;28;20042;-86
2023/05/03 07:56:06;;;;;;;2.28;1.30;;;9.80;99.90;;;;;;5005687;28;20042;-84
2023/05/03 07:58:32;;;;;;;0.82;0.63;;;9.80;99.90;;;;;;5004327;28;20088;-81
2023/05/03 08:00:58;;;;;;;2.50;0.70;;;9.80;99.90;;;;;;5004628;28;20566;-86
2023/05/03 08:03:23;;;;;;;0.43;0.43;;;9.80;99.90;;;;;;5003443;28;20119;-84
2023/05/03 08:05:49;;;;;;;0.73;0.73;;;9.80;99.90;;;;;;5003368;28;20046;-86
2023/05/03 08:08:15;;;;;;;1.42;0.47;;;9.80;99.90;;;;;;5005391;28;20449;-81
2023/05/03 08:10:40;;;;;;;0.82;0.60;;;9.80;99.90;;;;;;5005186;28;20042;-87
2023/05/03 08:13:06;;;;;;;2.75;1.13;;;9.90;99.90;;;;;;5005097;28;20046;-82
2023/05/03 08:15:32;;;;;;;1.65;0.60;;;9.90;99.90;;;;;;5003743;28;20042;-81
2023/05/03 08:17:59;;;;;;;0.75;0.50;;;9.90;99.90;;;;;;5019121;28;20128;-83
2023/05/03 08:20:28;;;;;;;1.33;0.50;;;10.00;99.90;;;;;;5005811;28;20054;-85
2023/05/03 08:22:57;;;;;;;0.80;0.63;;;10.00;99.90;;;;;;5005544;28;20046;-84
2023/05/03 08:25:24;;;;;;;1.27;0.75;;;10.00;99.90;;;;;;4987442;28;20045;-86
2023/05/03 08:27:54;;;;;;;0.82;0.60;;;10.00;99.90;;;;;;4988061;28;20049;-84
2023/05/03 08:30:24;;;;;;;0.57;0.57;;;10.10;99.90;;;;;;5004070;28;20038;-85
2023/05/03 08:32:50;;;;;;;0.80;0.80;;;10.10;99.90;;;;;;4986761;28;20046;-87
2023/05/03 08:35:16;;;;;;;0.65;0.65;;;10.00;99.90;;;;;;4987046;28;20129;-85
2023/05/03 08:37:42;;;;;;;2.25;1.00;;;10.00;99.90;;;;;;5003889;28;20113;-85
2023/05/03 08:40:10;;;;;;;2.25;0.80;;;10.00;99.90;;;;;;5005090;28;20050;-87
2023/05/03 08:42:43;;;;;;;0.57;0.50;;;10.10;99.90;;;;;;5004268;28;20615;-87
2023/05/03 08:45:11;;;;;;;0.57;0.57;;;10.00;99.90;;;;;;5005150;28;20085;-83
2023/05/03 08:47:39;;;;;;;0.75;0.75;;;10.10;99.90;;;;;;5004127;28;20050;-86
2023/05/03 08:50:05;;;;;;;0.90;0.77;;;10.10;99.90;;;;;;5004307;28;20042;-87
2023/05/03 08:52:33;;;;;;;1.10;0.70;;;10.20;99.90;;;;;;5004423;28;20050;-85
2023/05/03 08:54:59;;;;;;;3.28;0.65;;;10.20;99.90;;;;;;5003518;28;20053;-85
2023/05/03 08:57:26;;;;;;;1.33;0.60;;;10.20;99.90;;;;;;5003973;28;20492;-86
2023/05/03 08:59:56;;;;;;;3.72;1.15;;;10.20;99.90;;;;;;5003267;28;20134;-85
2023/05/03 09:02:21;;;;;;;1.02;0.68;;;10.30;99.90;;;;;;5002154;28;20071;-83
2023/05/03 09:04:47;;;;;;;1.95;0.60;;;10.30;99.90;;;;;;4985837;28;20552;-86
2023/05/03 09:07:14;;;;;;;1.70;0.93;;;10.40;99.90;;;;;;5004256;28;20037;-86
2023/05/03 09:09:40;;;;;;;0.52;0.50;;;10.40;99.90;;;;;;5004263;28;20068;-87
2023/05/03 09:12:06;;;;;;;0.40;0.30;;;10.40;99.90;;;;;;5003874;28;20046;-82
2023/05/03 09:14:45;;;;;;;0.52;0.52;;;10.40;99.90;;;;;;5004553;28;20432;-87
2023/05/03 09:17:20;;;;;;;1.10;0.80;;;10.40;99.90;;;;;;5003110;28;20053;-86
2023/05/03 09:19:51;;;;;;;0.75;0.73;;;10.50;99.90;;;;;;5003843;28;20045;-84
2023/05/03 09:22:17;;;;;;;2.25;0.70;;;10.50;99.90;;;;;;5003834;28;20061;-84
2023/05/03 09:24:54;;;;;;;1.75;0.90;;;10.50;99.90;;;;;;5002932;28;20050;-86
2023/05/03 09:27:20;;;;;;;0.68;0.60;;;10.50;99.90;;;;;;5003531;28;20413;-86
2023/05/03 09:29:46;;;;;;;1.73;0.85;;;10.50;99.90;;;;;;5002261;28;20063;-87
2023/05/03 09:32:12;;;;;;;0.50;0.50;;;10.60;99.90;;;;;;4985637;28;20060;-84
2023/05/03 09:34:37;;;;;;;1.67;0.90;;;10.60;99.90;;;;;;5004206;28;20037;-87
2023/05/03 09:37:03;;;;;;;0.93;0.82;;;10.50;99.90;;;;;;5002863;28;20122;-83
2023/05/03 09:39:29;;;;;;;0.73;0.60;;;10.50;99.90;;;;;;5002909;28;20322;-88
2023/05/03 09:41:54;;;;;;;0.52;0.52;;;10.60;99.90;;;;;;5003897;28;20132;-84
2023/05/03 09:44:50;;;;;;;0.73;0.73;;;10.60;99.90;;;;;;5004022;28;20045;-86
2023/05/03 09:47:17;;;;;;;2.10;0.75;;;10.60;99.90;;;;;;5002693;28;20096;-85
2023/05/03 09:49:43;;;;;;;1.42;0.75;;;10.70;99.90;;;;;;5002375;28;20042;-87
2023/05/03 09:52:09;;;;;;;0.95;0.50;;;10.70;99.90;;;;;;5003771;28;20097;-85
2023/05/03 09:54:35;;;;;;;1.58;1.02;;;10.70;99.90;;;;;;5003669;28;20038;-86
2023/05/03 09:57:03;;;;;;;1.67;0.93;;;10.70;99.90;;;;;;5003413;28;20061;-82
2023/05/03 09:59:30;;;;;;;2.83;1.00;;;10.70;99.90;;;;;;5004465;28;20053;-83
2023/05/03 10:01:58;;;;;;;1.13;1.02;;;10.80;99.90;;;;;;5000481;28;20061;-86
2023/05/03 10:04:26;;;;;;;1.27;0.52;;;10.80;99.90;;;;;;5001595;28;20053;-84
2023/05/03 10:07:00;;;;;;;1.88;1.10;;;10.80;99.90;;;;;;5003452;28;20199;-82
2023/05/03 10:09:39;;;;;;;1.70;0.88;;;10.90;99.90;;;;;;5003192;28;20050;-83
2023/05/03 10:12:07;;;;;;;4.05;0.85;;;10.90;99.90;;;;;;5002926;28;20245;-84
2023/05/03 10:14:33;;;;;;;2.90;1.00;;;11.00;99.90;;;;;;5001703;28;20126;-81
2023/05/03 10:17:06;;;;;;;0.80;0.47;;;11.00;99.90;;;;;;5002648;28;20046;-86
2023/05/03 10:19:32;;;;;;;0.65;0.63;;;11.00;99.90;;;;;;4985707;28;20096;-86
2023/05/03 10:22:05;;;;;;;1.48;0.93;;;11.00;99.90;;;;;;5003277;28;20531;-85
2023/05/03 10:24:32;;;;;;;1.80;0.68;;;11.10;99.90;;;;;;5002341;28;20038;-84
2023/05/03 10:26:58;;;;;;;2.58;0.60;;;11.10;99.90;;;;;;5003020;28;20042;-86
2023/05/03 10:29:47;;;;;;;1.33;0.40;;;11.10;99.90;;;;;;5003113;28;20115;-85
2023/05/03 10:32:41;;;;;;;0.68;0.65;;;11.10;99.90;;;;;;5002118;28;20511;-85
2023/05/03 10:35:14;;;;;;;2.72;0.98;;;11.10;99.90;;;;;;5003304;28;20498;-84
2023/05/03 10:37:41;;;;;;;;;;;11.10;99.90;;;;;;5004122;28;20053;-85
2023/05/03 10:40:08;;;;;;;0.80;0.68;;;11.20;99.90;;;;;;5004547;28;19928;-87
2023/05/03 10:42:34;;;;;;;1.98;0.70;;;11.20;99.90;;;;;;5006169;28;20053;-81
2023/05/03 10:45:02;;;;;;;0.70;0.70;;;11.30;99.90;;;;;;5007984;28;20092;-83
2023/05/03 10:47:28;;;;;;;1.38;0.60;;;11.30;99.90;;;;;;5006144;28;20054;-85
2023/05/03 10:50:15;;;;;;;0.93;0.57;;;11.30;99.90;;;;;;5006349;28;20104;-84
2023/05/03 10:52:41;;;;;;;0.93;0.93;;;11.40;99.90;;;;;;5005988;28;20050;-84
2023/05/03 10:55:11;;;;;;;2.33;0.80;;;11.40;99.90;;;;;;5006194;28;20427;-86
2023/05/03 10:57:42;;;;;;;0.70;0.70;;;11.50;99.90;;;;;;5005478;28;20118;-84
2023/05/03 11:00:37;;;;;;;3.45;0.73;;;11.50;99.90;;;;;;5006532;28;20392;-83
2023/05/03 11:03:37;;;;;;;3.00;0.80;;;11.60;99.90;;;;;;5005791;28;20232;-84
2023/05/03 11:06:03;;;;;;;0.73;0.65;;;11.60;99.90;;;;;;5005282;28;20083;-86
2023/05/03 11:08:29;;;;;;;1.00;0.80;;;11.70;99.90;;;;;;5006270;28;20038;-84
2023/05/03 11:10:59;;;;;;;2.20;1.00;;;11.70;99.90;;;;;;5006445;28;20046;-81
2023/05/03 11:13:26;;;;;;;3.38;0.70;;;11.70;99.90;;;;;;5006734;28;20100;-86
2023/05/03 11:15:55;;;;;;;1.88;0.60;;;11.80;99.90;;;;;;5006123;28;20061;-83
2023/05/03 11:18:21;;;;;;;2.42;0.70;;;11.80;99.90;;;;;;5005661;28;20132;-84
2023/05/03 11:20:48;;;;;;;1.65;1.30;;;11.90;99.90;;;;;;5006311;28;20163;-86
2023/05/03 11:23:14;;;;;;;0.75;0.68;;;11.90;99.90;;;;;;5005832;28;20573;-81
2023/05/03 11:25:40;;;;;;;1.95;1.02;;;11.90;99.90;;;;;;5005107;28;20041;-86
2023/05/03 11:28:06;;;;;;;0.95;0.93;;;12.00;99.90;;;;;;5006800;28;20042;-84
2023/05/03 11:30:36;;;;;;;0.90;0.80;;;12.00;99.90;;;;;;5006949;28;20761;-84
2023/05/03 11:33:02;;;;;;;1.30;0.60;;;12.00;99.90;;;;;;5005897;28;20117;-86
2023/05/03 11:35:31;;;;;;;1.20;1.00;;;12.10;99.90;;;;;;5005846;28;20052;-86
2023/05/03 11:38:00;;;;;;;3.75;0.70;;;12.10;99.90;;;;;;5006221;28;20038;-84
2023/05/03 11:40:26;;;;;;;1.25;1.17;;;12.10;99.90;;;;;;4989362;28;20108;-86
2023/05/03 11:42:57;;;;;;;1.65;0.68;;;12.10;99.90;;;;;;5004947;28;20050;-87
2023/05/03 11:45:30;;;;;;;1.20;0.75;;;12.20;99.90;;;;;;5005895;28;20435;-84
2023/05/03 11:47:56;;;;;;;2.67;0.77;;;12.20;99.90;;;;;;5004930;28;20610;-84
2023/05/03 11:50:41;;;;;;;1.10;0.98;;;12.10;99.90;;;;;;5005300;28;20089;-88
2023/05/03 11:53:07;;;;;;;2.05;1.00;;;12.20;99.90;;;;;;5005993;28;20072;-86
2023/05/03 11:55:33;;;;;;;1.27;0.88;;;12.20;99.90;;;;;;5004645;28;20045;-85
2023/05/03 11:58:00;;;;;;;1.90;1.58;;;12.20;99.90;;;;;;5005792;28;20388;-87
2023/05/03 12:00:26;;;;;;;2.10;0.63;;;12.20;99.90;;;;;;5005552;28;20037;-84
2023/05/03 12:02:51;;;;;;;1.10;0.77;;;12.30;99.90;;;;;;5004554;28;20400;-87
2023/05/03 12:05:17;;;;;;;2.08;0.90;;;12.30;99.90;;;;;;5005621;28;20048;-85
2023/05/03 12:07:43;;;;;;;2.33;0.80;;;12.20;99.90;;;;;;5004504;28;20049;-86
2023/05/03 12:10:18;;;;;;;1.63;1.33;;;12.30;99.90;;;;;;5005502;28;20042;-82
2023/05/03 12:13:00;;;;;;;0.82;0.82;;;12.30;99.90;;;;;;5005210;28;20038;-83
2023/05/03 12:15:29;;;;;;;;;;;12.40;99.90;;;;;;5004816;28;20037;-81
2023/05/03 12:17:56;;;;;;;1.30;0.80;;;12.40;99.90;;;;;;5003435;28;19921;-87
2023/05/03 12:20:23;;;;;;;1.88;0.98;;;12.50;99.90;;;;;;5005248;28;20507;-87
2023/05/03 12:22:54;;;;;;;1.17;0.90;;;12.60;99.90;;;;;;5005317;28;20038;-82
2023/05/03 12:25:21;;;;;;;0.75;0.73;;;12.60;99.90;;;;;;5005513;28;20049;-84
2023/05/03 12:27:47;;;;;;;4.68;0.90;;;12.60;99.90;;;;;;5004781;28;20436;-88
2023/05/03 12:30:13;;;;;;;2.28;0.55;;;12.60;99.90;;;;;;5004570;28;20041;-82
2023/05/03 12:32:39;;;;;;;1.55;1.02;;;12.50;99.90;;;;;;5004511;28;20034;-86
2023/05/03 12:35:07;;;;;;;2.38;0.90;;;12.60;99.90;;;;;;5004069;28;20385;-84
2023/05/03 12:37:33;;;;;;;2.08;1.02;;;12.70;99.90;;;;;;5005159;28;20048;-86
2023/05/03 12:39:59;;;;;;;1.15;0.88;;;12.80;99.90;;;;;;5004703;28;20042;-86
2023/05/03 12:42:25;;;;;;;3.05;1.48;;;12.80;99.90;;;;;;5003559;28;20484;-83
2023/05/03 12:44:50;;;;;;;1.00;0.80;;;12.80;99.90;;;;;;5005788;28;20081;-87
2023/05/03 12:47:16;;;;;;;0.82;0.82;;;12.80;99.90;;;;;;5003023;28;20510;-81
2023/05/03 12:49:41;;;;;;;1.00;0.70;;;12.70;99.90;;;;;;5005366;28;20050;-83
2023/05/03 12:52:07;;;;;;;0.70;0.70;;;12.70;99.90;;;;;;5005597;28;20056;-87
2023/05/03 12:54:33;;;;;;;1.88;0.70;;;12.70;99.90;;;;;;5003887;28;20129;-82
2023/05/03 12:57:02;;;;;;;1.00;0.90;;;12.70;99.90;;;;;;5003343;28;20042;-87